Time;durP1;ratioP1;P1;durP2;ratioP2;P2;SDS_P1;SDS_P2;PMS_P1;PMS_P2;Temp;Humidity;BMP_temperature;BMP_pressure;BME280_temperature;BME280_humidity;BME280_pressure;Samples;Min_cycle;Max_cycle;Signal;HPM_P1;HPM_P2
2022/04/14 00:02:25;;;;;;;;;;;14.40;89.70;;;;;;4947620;28;20472;-77
2022/04/14 00:04:53;;;;;;;;;;;14.40;89.70;;;;;;4932923;28;19926;-76
2022/04/14 00:07:20;;;;;;;;;;;14.30;89.70;;;;;;4952149;28;19937;-77
2022/04/14 00:09:47;;;;;;;;;;;14.30;89.70;;;;;;4955619;28;19962;-77
2022/04/14 00:12:14;;;;;;;;;;;14.20;89.70;;;;;;4941434;28;19927;-77
2022/04/14 00:14:42;;;;;;;;;;;14.30;90.00;;;;;;4944034;28;20029;-76
2022/04/14 00:17:12;;;;;;;;;;;14.20;90.00;;;;;;4947908;28;20488;-77
2022/04/14 00:19:40;;;;;;;;;;;14.10;90.00;;;;;;4946194;28;19934;-77
2022/04/14 00:22:08;;;;;;;;;;;14.20;90.00;;;;;;4948293;28;19934;-78
2022/04/14 00:24:35;;;;;;;;;;;14.10;90.00;;;;;;4950345;28;19935;-76
2022/04/14 00:27:02;;;;;;;;;;;14.10;90.00;;;;;;4939560;28;19930;-78
2022/04/14 00:29:30;;;;;;;;;;;14.10;90.00;;;;;;4948859;28;20017;-78
2022/04/14 00:31:57;;;;;;;;;;;14.00;90.00;;;;;;4944100;28;19974;-77
2022/04/14 00:34:25;;;;;;;;;;;14.00;90.10;;;;;;4951841;28;19926;-77
2022/04/14 00:36:52;;;;;;;;;;;14.00;90.00;;;;;;4956835;28;19959;-78
2022/04/14 00:39:20;;;;;;;;;;;13.90;90.00;;;;;;4951054;28;19973;-77
2022/04/14 00:41:47;;;;;;;;;;;13.90;90.00;;;;;;4933334;29;19926;-76
2022/04/14 00:44:13;;;;;;;;;;;13.90;90.10;;;;;;4951617;28;19990;-77
2022/04/14 00:46:40;;;;;;;;;;;13.80;90.10;;;;;;4942773;28;19957;-77
2022/04/14 00:49:08;;;;;;;;;;;13.80;90.10;;;;;;4950260;28;19931;-77
2022/04/14 00:51:35;;;;;;;;;;;13.80;90.20;;;;;;4930525;28;19926;-77
2022/04/14 00:54:01;;;;;;;;;;;13.80;90.20;;;;;;4948093;28;21042;-78
2022/04/14 00:56:30;;;;;;;;;;;13.70;90.20;;;;;;4934090;28;19938;-77
2022/04/14 00:58:57;;;;;;;;;;;13.70;90.20;;;;;;4948804;28;20385;-77
2022/04/14 01:01:23;;;;;;;;;;;13.70;90.30;;;;;;4952175;28;19926;-78
2022/04/14 01:03:51;;;;;;;;;;;13.60;90.20;;;;;;4949270;28;20455;-77
2022/04/14 01:06:19;;;;;;;;;;;13.60;90.30;;;;;;4933481;28;19946;-78
2022/04/14 01:09:16;;;;;;;;;;;13.60;90.30;;;;;;4934065;29;19966;-77
2022/04/14 01:11:37;;;;;;;;;;;13.60;90.30;;;;;;4948423;28;19937;-77
2022/04/14 01:14:04;;;;;;;;;;;13.60;90.30;;;;;;4948647;28;19931;-77
2022/04/14 01:16:31;;;;;;;;;;;13.50;90.40;;;;;;4932418;28;19938;-77
2022/04/14 01:18:59;;;;;;;;;;;13.50;90.50;;;;;;4948327;28;20361;-78
2022/04/14 01:21:28;;;;;;;;;;;13.50;90.50;;;;;;4952215;28;19933;-76
2022/04/14 01:23:56;;;;;;;;;;;13.40;90.50;;;;;;4948801;28;19934;-78
2022/04/14 01:26:23;;;;;;;;;;;13.40;90.50;;;;;;4946959;28;19933;-76
2022/04/14 01:28:50;;;;;;;;;;;13.40;90.50;;;;;;4943533;28;20398;-77
2022/04/14 01:31:18;;;;;;;;;;;13.40;90.50;;;;;;4950082;28;19941;-77
2022/04/14 01:33:45;;;;;;;;;;;13.40;90.50;;;;;;4945162;28;19933;-78
2022/04/14 01:36:11;;;;;;;;;;;13.30;90.50;;;;;;4961091;28;20578;-78
2022/04/14 01:38:38;;;;;;;;;;;13.30;90.60;;;;;;4933599;29;19931;-78
2022/04/14 01:41:07;;;;;;;;;;;13.30;90.60;;;;;;4952289;28;20150;-77
2022/04/14 01:43:33;;;;;;;;;;;13.30;90.60;;;;;;4949854;28;19934;-78
2022/04/14 01:46:00;;;;;;;;;;;13.30;90.70;;;;;;4931829;28;20431;-78
2022/04/14 01:48:27;;;;;;;;;;;13.20;90.60;;;;;;4949710;28;19966;-77
2022/04/14 01:50:54;;;;;;;;;;;13.20;90.70;;;;;;4951890;28;19926;-77
2022/04/14 01:53:21;;;;;;;;;;;13.20;90.80;;;;;;4954561;28;19930;-78
2022/04/14 01:55:48;;;;;;;;;;;13.10;90.80;;;;;;4929739;28;19927;-78
2022/04/14 01:58:16;;;;;;;;;;;13.10;90.80;;;;;;4932234;29;19934;-78
2022/04/14 02:00:43;;;;;;;;;;;13.10;90.80;;;;;;4943329;28;19931;-78
2022/04/14 02:03:10;;;;;;;;;;;13.10;90.90;;;;;;4936349;29;19926;-77
2022/04/14 02:05:39;;;;;;;;;;;13.10;90.90;;;;;;4932464;28;19926;-77
2022/04/14 02:08:07;;;;;;;;;;;13.10;90.90;;;;;;4936371;29;19950;-78
2022/04/14 02:10:34;;;;;;;;;;;13.00;90.90;;;;;;4950035;28;19954;-78
2022/04/14 02:13:02;;;;;;;;;;;13.00;91.20;;;;;;4948151;28;20850;-77
2022/04/14 02:15:30;;;;;;;;;;;13.00;91.00;;;;;;4945950;28;20392;-77
2022/04/14 02:17:58;;;;;;;;;;;13.00;91.00;;;;;;4952217;28;20610;-76
2022/04/14 02:20:25;;;;;;;;;;;13.00;91.00;;;;;;4930697;29;20025;-77
2022/04/14 02:22:52;;;;;;;;;;;12.90;91.00;;;;;;4953369;28;19926;-77
2022/04/14 02:25:20;;;;;;;;;;;12.90;91.00;;;;;;4952900;28;19934;-77
2022/04/14 02:27:48;;;;;;;;;;;12.90;91.10;;;;;;4952414;28;20395;-78
2022/04/14 02:30:14;;;;;;;;;;;12.90;91.20;;;;;;4935604;28;19993;-76
2022/04/14 02:32:43;;;;;;;;;;;12.90;91.20;;;;;;4947536;28;20310;-78
2022/04/14 02:35:10;;;;;;;;;;;12.80;91.20;;;;;;4952267;28;19927;-78
2022/04/14 02:37:37;;;;;;;;;;;12.80;91.20;;;;;;4952732;28;19975;-77
2022/04/14 02:40:04;;;;;;;;;;;12.80;91.20;;;;;;4949575;28;19934;-78
2022/04/14 02:42:31;;;;;;;;;;;12.80;91.30;;;;;;4958132;28;19930;-77
2022/04/14 02:44:58;;;;;;;;;;;12.80;91.30;;;;;;4952335;28;20463;-78
2022/04/14 02:47:25;;;;;;;;;;;12.70;91.30;;;;;;4946623;28;19927;-77
2022/04/14 02:49:54;;;;;;;;;;;12.70;91.30;;;;;;4958305;28;20017;-78
2022/04/14 02:52:21;;;;;;;;;;;12.70;91.40;;;;;;4966228;28;19946;-77
2022/04/14 02:54:48;;;;;;;;;;;12.70;91.30;;;;;;4935246;29;19943;-78
2022/04/14 02:57:15;;;;;;;;;;;12.70;91.40;;;;;;4949306;28;20013;-76
2022/04/14 02:59:42;;;;;;;;;;;12.70;91.40;;;;;;4951566;28;19937;-77
2022/04/14 03:02:09;;;;;;;;;;;12.60;91.40;;;;;;4952166;28;19927;-77
2022/04/14 03:04:37;;;;;;;;;;;12.60;91.50;;;;;;4931294;29;19927;-77
2022/04/14 03:07:06;;;;;;;;;;;12.60;91.50;;;;;;4948672;28;20392;-78
2022/04/14 03:09:33;;;;;;;;;;;12.60;91.60;;;;;;4954789;28;19934;-78
2022/04/14 03:11:59;;;;;;;;;;;12.60;91.60;;;;;;4937787;28;19930;-78
2022/04/14 03:14:26;;;;;;;;;;;12.60;91.70;;;;;;4953381;28;19933;-78
2022/04/14 03:16:54;;;;;;;;;;;12.50;91.90;;;;;;4954470;28;19935;-78
2022/04/14 03:19:21;;;;;;;;;;;12.40;91.60;;;;;;4940364;28;19931;-77
2022/04/14 03:21:50;;;;;;;;;;;12.50;91.70;;;;;;4959094;28;19969;-78
2022/04/14 03:24:18;;;;;;;;;;;12.50;91.70;;;;;;4952984;28;19927;-79
2022/04/14 03:26:45;;;;;;;;;;;12.50;91.70;;;;;;4956943;28;19930;-78
2022/04/14 03:29:12;;;;;;;;;;;12.40;91.70;;;;;;4955818;28;20007;-77
2022/04/14 03:31:39;;;;;;;;;;;12.40;91.70;;;;;;4951786;28;20389;-77
2022/04/14 03:34:07;;;;;;;;;;;12.40;91.70;;;;;;4943899;28;19938;-78
2022/04/14 03:36:33;;;;;;;;;;;12.40;91.70;;;;;;4925986;28;20301;-78
2022/04/14 03:39:00;;;;;;;;;;;12.30;91.70;;;;;;4952317;28;19964;-77
2022/04/14 03:41:31;;;;;;;;;;;12.30;91.70;;;;;;4936370;28;19933;-78
2022/04/14 03:43:58;;;;;;;;;;;12.30;91.70;;;;;;4935018;28;19934;-78
2022/04/14 03:46:25;;;;;;;;;;;12.30;91.80;;;;;;4959847;23;19963;-76
2022/04/14 03:48:54;;;;;;;;;;;12.30;91.80;;;;;;4966448;28;19926;-76
2022/04/14 03:51:22;;;;;;;;;;;12.30;91.90;;;;;;4967156;28;19933;-76
2022/04/14 03:53:49;;;;;;;;;;;12.20;91.80;;;;;;4956098;28;19934;-77
2022/04/14 03:56:16;;;;;;;;;;;12.20;91.80;;;;;;4965827;28;20770;-77
2022/04/14 03:58:44;;;;;;;;;;;12.20;91.80;;;;;;4961806;28;19937;-76
2022/04/14 04:01:12;;;;;;;;;;;12.20;91.80;;;;;;4956689;28;20465;-76
2022/04/14 04:03:39;;;;;;;;;;;12.20;91.80;;;;;;4970080;28;19933;-77
2022/04/14 04:06:06;;;;;;;;;;;12.10;91.80;;;;;;4971154;28;19934;-76
2022/04/14 04:08:33;;;;;;;;;;;12.10;91.80;;;;;;4962082;28;19933;-76
2022/04/14 04:11:00;;;;;;;;;;;12.10;91.80;;;;;;4954349;28;19950;-76
2022/04/14 04:13:27;;;;;;;;;;;12.10;91.80;;;;;;4966641;28;19934;-76
2022/04/14 04:15:55;;;;;;;;;;;12.10;91.90;;;;;;4970358;28;20021;-76
2022/04/14 04:18:22;;;;;;;;;;;12.10;91.90;;;;;;4968125;28;19927;-77
2022/04/14 04:20:49;;;;;;;;;;;12.00;91.90;;;;;;4964131;28;19933;-76
2022/04/14 04:23:16;;;;;;;;;;;12.00;92.00;;;;;;4968302;28;19930;-76
2022/04/14 04:25:43;;;;;;;;;;;12.00;92.00;;;;;;4970392;28;20403;-76
2022/04/14 04:28:10;;;;;;;;;;;12.00;92.00;;;;;;4970806;28;19930;-77
2022/04/14 04:30:37;;;;;;;;;;;12.00;92.10;;;;;;4970399;28;19930;-77
2022/04/14 04:33:07;;;;;;;;;;;12.00;92.10;;;;;;4966158;28;19946;-76
2022/04/14 04:35:35;;;;;;;;;;;11.90;92.00;;;;;;4968071;28;20380;-76
2022/04/14 04:38:05;;;;;;;;;;;11.90;92.00;;;;;;4970889;28;19937;-76
2022/04/14 04:40:32;;;;;;;;;;;11.90;92.00;;;;;;4972627;28;19973;-77
2022/04/14 04:43:01;;;;;;;;;;;11.90;92.00;;;;;;4939978;28;19937;-76
2022/04/14 04:45:29;;;;;;;;;;;11.90;92.10;;;;;;4957047;28;20357;-76
2022/04/14 04:47:55;;;;;;;;;;;11.90;92.10;;;;;;4948799;28;19935;-76
2022/04/14 04:50:24;;;;;;;;;;;11.80;92.10;;;;;;4948168;28;20398;-77
2022/04/14 04:52:51;;;;;;;;;;;11.80;92.10;;;;;;4953392;28;19934;-77
2022/04/14 04:55:18;;;;;;;;;;;11.80;92.00;;;;;;4974186;28;19926;-76
2022/04/14 04:57:45;;;;;;;;;;;11.80;92.00;;;;;;4971581;28;19974;-76
2022/04/14 05:00:12;;;;;;;;;;;11.80;92.10;;;;;;4973691;28;19929;-76
2022/04/14 05:02:39;;;;;;;;;;;11.70;92.00;;;;;;4953335;28;20370;-76
2022/04/14 05:05:06;;;;;;;;;;;11.70;92.00;;;;;;4941407;28;19929;-77
2022/04/14 05:07:35;;;;;;;;;;;11.70;92.10;;;;;;4952625;28;19972;-76
2022/04/14 05:10:02;;;;;;;;;;;11.70;92.10;;;;;;4962420;28;20139;-77
2022/04/14 05:12:29;;;;;;;;;;;11.70;92.10;;;;;;4951956;28;20377;-76
2022/04/14 05:15:04;;;;;;;;;;;11.70;92.10;;;;;;4951174;28;19934;-76
2022/04/14 05:17:34;;;;;;;;;;;11.70;92.10;;;;;;4966319;28;20297;-76
2022/04/14 05:20:03;;;;;;;;;;;11.70;92.10;;;;;;4970330;28;20004;-76
2022/04/14 05:22:30;;;;;;;;;;;11.60;92.10;;;;;;4962222;28;19938;-76
2022/04/14 05:25:01;;;;;;;;;;;11.60;92.10;;;;;;4962135;28;19926;-76
2022/04/14 05:27:28;;;;;;;;;;;11.60;92.10;;;;;;4952178;28;19926;-76
2022/04/14 05:29:55;;;;;;;;;;;11.60;92.10;;;;;;4960325;28;19930;-76
2022/04/14 05:32:22;;;;;;;;;;;11.60;92.10;;;;;;4938643;28;19983;-76
2022/04/14 05:34:49;;;;;;;;;;;11.60;92.10;;;;;;4956683;28;20025;-76
2022/04/14 05:37:16;;;;;;;;;;;11.60;92.20;;;;;;4949939;28;19934;-76
2022/04/14 05:39:43;;;;;;;;;;;11.60;92.20;;;;;;4939395;28;19941;-76
2022/04/14 05:42:11;;;;;;;;;;;11.50;92.50;;;;;;4947439;28;21503;-76
2022/04/14 05:44:38;;;;;;;;;;;11.50;92.30;;;;;;4947785;28;20020;-76
2022/04/14 05:47:05;;;;;;;;;;;11.50;92.30;;;;;;4965578;28;19933;-76
2022/04/14 05:49:32;;;;;;;;;;;11.50;92.30;;;;;;4965912;28;20385;-76
2022/04/14 05:51:59;;;;;;;;;;;11.50;92.40;;;;;;4960330;28;19977;-76
2022/04/14 05:54:26;;;;;;;;;;;11.50;92.40;;;;;;4971406;28;19945;-77
2022/04/14 05:56:53;;;;;;;;;;;11.50;92.40;;;;;;4962831;28;19986;-76
2022/04/14 05:59:21;;;;;;;;;;;11.50;92.50;;;;;;4946605;28;19965;-76
2022/04/14 06:01:48;;;;;;;;;;;11.50;92.70;;;;;;4960828;28;19997;-77
2022/04/14 06:04:15;;;;;;;;;;;11.40;92.60;;;;;;4965962;28;19933;-76
2022/04/14 06:06:42;;;;;;;;;;;11.50;92.80;;;;;;4961513;28;19965;-76
2022/04/14 06:09:10;;;;;;;;;;;11.40;92.80;;;;;;4965788;28;19926;-77
2022/04/14 06:11:37;;;;;;;;;;;11.40;92.80;;;;;;4947031;28;20353;-77
2022/04/14 06:14:04;;;;;;;;;;;11.50;92.90;;;;;;4963986;28;20002;-76
2022/04/14 06:16:32;;;;;;;;;;;11.40;92.90;;;;;;4960343;28;19934;-76
2022/04/14 06:19:00;;;;;;;;;;;11.40;93.00;;;;;;4949047;28;20415;-77
2022/04/14 06:21:27;;;;;;;;;;;11.40;93.00;;;;;;4964166;28;19927;-76
2022/04/14 06:23:55;;;;;;;;;;;11.40;93.10;;;;;;4945299;28;20418;-76
2022/04/14 06:26:22;;;;;;;;;;;11.40;93.20;;;;;;4959387;28;21755;-76
2022/04/14 06:28:49;;;;;;;;;;;11.40;93.30;;;;;;4956293;28;19926;-77
2022/04/14 06:31:16;;;;;;;;;;;11.40;93.30;;;;;;4952324;28;19941;-76
2022/04/14 06:33:44;;;;;;;;;;;11.40;93.30;;;;;;4960547;28;19965;-76
2022/04/14 06:36:11;;;;;;;;;;;11.40;93.30;;;;;;4940662;28;19938;-77
2022/04/14 06:38:39;;;;;;;;;;;11.40;93.30;;;;;;4956132;28;20029;-77
2022/04/14 06:41:06;;;;;;;;;;;11.40;93.30;;;;;;4965664;28;20805;-77
2022/04/14 06:43:33;;;;;;;;;;;11.40;93.30;;;;;;4965035;28;20030;-78
2022/04/14 06:46:03;;;;;;;;;;;11.40;93.50;;;;;;4949528;28;19926;-79
2022/04/14 06:48:31;;;;;;;;;;;11.40;93.50;;;;;;4953224;28;19972;-76
2022/04/14 06:50:59;;;;;;;;;;;11.30;93.50;;;;;;4959590;28;20007;-76
2022/04/14 06:53:26;;;;;;;;;;;11.30;93.60;;;;;;4949184;28;19926;-76
2022/04/14 06:55:53;;;;;;;;;;;11.40;93.70;;;;;;4957275;28;19930;-75
2022/04/14 06:58:20;;;;;;;;;;;11.40;93.80;;;;;;4951892;28;19930;-75
2022/04/14 07:00:47;;;;;;;;;;;11.40;93.80;;;;;;4944102;28;20717;-76
2022/04/14 07:03:14;;;;;;;;;;;11.40;93.90;;;;;;4962030;28;19973;-74
2022/04/14 07:05:41;;;;;;;;;;;11.30;94.10;;;;;;4939450;28;19992;-76
2022/04/14 07:08:09;;;;;;;;;;;11.30;94.30;;;;;;4949391;28;19930;-76
2022/04/14 07:10:36;;;;;;;;;;;11.40;94.50;;;;;;4957201;28;20005;-77
2022/04/14 07:13:04;;;;;;;;;;;11.30;94.70;;;;;;4959955;28;19934;-76
2022/04/14 07:15:30;;;;;;;;;;;11.30;94.60;;;;;;4955270;28;19981;-76
2022/04/14 07:17:57;;;;;;;;;;;11.30;94.90;;;;;;4950320;28;19981;-75
2022/04/14 07:20:29;;;;;;;;;;;11.30;94.80;;;;;;4947289;28;20297;-76
2022/04/14 07:22:58;;;;;;;;;;;11.30;95.30;;;;;;4952918;28;19977;-76
2022/04/14 07:25:28;;;;;;;;;;;11.40;96.10;;;;;;4940830;28;20392;-75
2022/04/14 07:27:59;;;;;;;;;;;11.40;96.10;;;;;;4954800;28;20803;-75
2022/04/14 07:30:27;;;;;;;;;;;11.50;96.10;;;;;;4947182;28;19989;-75
2022/04/14 07:32:55;;;;;;;;;;;11.50;96.10;;;;;;4959566;28;19933;-76
2022/04/14 07:35:25;;;;;;;;;;;11.50;96.10;;;;;;4945605;28;20078;-76
2022/04/14 07:37:53;;;;;;;;;;;11.60;96.10;;;;;;4962898;28;20336;-75
2022/04/14 07:40:20;;;;;;;;;;;11.60;96.00;;;;;;4958482;28;19938;-76
2022/04/14 07:42:49;;;;;;;;;;;11.60;96.00;;;;;;4964327;28;19927;-76
2022/04/14 07:45:16;;;;;;;;;;;11.60;96.00;;;;;;4963344;28;19934;-76
2022/04/14 07:47:45;;;;;;;;;;;11.60;96.00;;;;;;4961513;28;19936;-74
2022/04/14 07:50:15;;;;;;;;;;;11.60;96.10;;;;;;4962836;28;19926;-76
2022/04/14 07:52:46;;;;;;;;;;;11.70;96.20;;;;;;4964616;28;19962;-76
2022/04/14 07:55:18;;;;;;;;;;;11.70;96.20;;;;;;4958711;28;19926;-75
2022/04/14 07:57:45;;;;;;;;;;;11.70;96.20;;;;;;4961854;28;19978;-75
2022/04/14 08:00:15;;;;;;;;;;;11.70;96.30;;;;;;4959861;28;19934;-75
2022/04/14 08:02:49;;;;;;;;;;;11.70;96.30;;;;;;4955584;28;19934;-76
2022/04/14 08:05:17;;;;;;;;;;;11.70;96.30;;;;;;4962630;28;19926;-76
2022/04/14 08:07:44;;;;;;;;;;;11.70;96.30;;;;;;4962975;28;20432;-76
2022/04/14 08:10:10;;;;;;;;;;;11.70;96.40;;;;;;4967982;28;20408;-75
2022/04/14 08:12:38;;;;;;;;;;;11.80;96.50;;;;;;4946573;28;19926;-75
2022/04/14 08:15:10;;;;;;;;;;;11.80;97.00;;;;;;4958197;28;19934;-76
2022/04/14 08:17:40;;;;;;;;;;;11.80;98.40;;;;;;4948766;28;20412;-76
2022/04/14 08:20:10;;;;;;;;;;;11.90;99.30;;;;;;4954514;28;19933;-75
2022/04/14 08:22:43;;;;;;;;;;;12.00;99.90;;;;;;4958691;28;20345;-76
2022/04/14 08:25:11;;;;;;;;;;;12.10;99.90;;;;;;4953703;28;20396;-76
2022/04/14 08:27:38;;;;;;;;;;;12.20;99.90;;;;;;4963609;28;19926;-76
2022/04/14 08:30:05;;;;;;;;;;;12.30;99.90;;;;;;4945803;28;20411;-76
2022/04/14 08:32:34;;;;;;;;;;;12.30;99.90;;;;;;4955004;28;20589;-76
2022/04/14 08:35:02;;;;;;;;;;;12.30;99.90;;;;;;4952707;28;20513;-76
2022/04/14 08:37:29;;;;;;;;;;;12.40;99.90;;;;;;4947339;28;19926;-76
2022/04/14 08:39:57;;;;;;;;;;;12.50;99.90;;;;;;4946044;28;20476;-76
2022/04/14 08:42:26;;;;;;;;;;;12.50;99.90;;;;;;4931309;28;20397;-75
2022/04/14 08:44:56;;;;;;;;;;;12.50;99.90;;;;;;4943835;28;19937;-76
2022/04/14 08:47:24;;;;;;;;;;;12.60;99.90;;;;;;4931617;28;19933;-76
2022/04/14 08:49:53;;;;;;;;;;;12.60;99.90;;;;;;4956596;28;19930;-77
2022/04/14 08:52:22;;;;;;;;;;;12.90;99.90;;;;;;4947186;28;20082;-75
2022/04/14 08:54:50;;;;;;;;;;;13.00;99.90;;;;;;4954128;28;19989;-76
2022/04/14 08:57:18;;;;;;;;;;;13.00;99.90;;;;;;4948819;28;19933;-76
2022/04/14 08:59:46;;;;;;;;;;;13.00;99.90;;;;;;4944507;28;20064;-76
2022/04/14 09:02:14;;;;;;;;;;;13.00;99.90;;;;;;4940878;28;20512;-76
2022/04/14 09:04:42;;;;;;;;;;;13.10;99.90;;;;;;4935324;28;20007;-76
2022/04/14 09:07:09;;;;;;;;;;;13.00;99.90;;;;;;4946289;28;19926;-76
2022/04/14 09:09:37;;;;;;;;;;;13.00;99.90;;;;;;4931134;28;19926;-76
2022/04/14 09:12:04;;;;;;;;;;;13.10;99.90;;;;;;4952535;28;19941;-76
2022/04/14 09:14:34;;;;;;;;;;;13.20;99.90;;;;;;4943189;28;19934;-77
2022/04/14 09:17:03;;;;;;;;;;;13.20;99.90;;;;;;4947413;28;21266;-77
2022/04/14 09:19:30;;;;;;;;;;;13.30;99.90;;;;;;4936652;28;20689;-76
2022/04/14 09:21:58;;;;;;;;;;;13.30;99.90;;;;;;4940452;28;19965;-77
2022/04/14 09:24:39;;;;;;;;;;;13.30;99.90;;;;;;4935652;28;19930;-76
2022/04/14 09:27:06;;;;;;;;;;;13.40;99.90;;;;;;4933664;28;21584;-76
2022/04/14 09:29:33;;;;;;;;;;;13.50;99.90;;;;;;4945225;28;19930;-77
2022/04/14 09:32:00;;;;;;;;;;;13.60;99.90;;;;;;4943317;28;20325;-77
2022/04/14 09:34:42;;;;;;;;;;;13.60;99.90;;;;;;4945075;28;19930;-76
2022/04/14 09:37:09;;;;;;;;;;;13.70;99.90;;;;;;4954574;28;20393;-76
2022/04/14 09:39:53;;;;;;;;;;;13.90;99.90;;;;;;4949234;28;19932;-76
2022/04/14 09:42:21;;;;;;;;;;;14.00;99.90;;;;;;4946938;28;19933;-76
2022/04/14 09:44:48;;;;;;;;;;;14.10;99.90;;;;;;4926759;28;20455;-77
2022/04/14 09:47:22;;;;;;;;;;;14.00;99.90;;;;;;4968515;23;19910;-77
2022/04/14 09:49:49;;;;;;;;;;;14.00;99.90;;;;;;4961245;28;19930;-77
2022/04/14 09:52:16;;;;;;;;;;;14.20;99.90;;;;;;4957589;28;19933;-77
2022/04/14 09:54:45;;;;;;;;;;;14.20;99.90;;;;;;4948271;28;19992;-76
2022/04/14 09:57:13;;;;;;;;;;;14.30;99.90;;;;;;4966716;28;19934;-77
2022/04/14 09:59:41;;;;;;;;;;;14.20;99.90;;;;;;4971196;28;20025;-78
2022/04/14 10:02:09;;;;;;;;;;;14.20;99.90;;;;;;4969008;28;19926;-77
2022/04/14 10:04:37;;;;;;;;;;;14.20;99.90;;;;;;4956899;28;19933;-80
2022/04/14 10:07:05;;;;;;;;;;;14.20;99.90;;;;;;4968934;28;19926;-79
2022/04/14 10:09:33;;;;;;;;;;;14.10;99.90;;;;;;4979257;28;19930;-79
2022/04/14 10:12:00;;;;;;;;;;;14.00;99.90;;;;;;4974074;28;20029;-79
2022/04/14 10:14:28;;;;;;;;;;;14.00;99.90;;;;;;4966589;28;20399;-79
2022/04/14 10:16:57;;;;;;;;;;;14.00;99.90;;;;;;4970983;28;19934;-78
2022/04/14 10:19:24;;;;;;;;;;;13.90;99.90;;;;;;4987263;28;19930;-78
2022/04/14 10:21:51;;;;;;;;;;;13.90;99.90;;;;;;4970083;28;20339;-78
2022/04/14 10:24:19;;;;;;;;;;;13.90;99.90;;;;;;4968558;28;19929;-79
2022/04/14 10:26:47;;;;;;;;;;;14.00;99.90;;;;;;4969412;28;20471;-79
2022/04/14 10:29:14;;;;;;;;;;;14.00;99.90;;;;;;4972399;28;19930;-79
2022/04/14 10:31:43;;;;;;;;;;;14.00;99.90;;;;;;4963927;28;19933;-78
2022/04/14 10:34:11;;;;;;;;;;;14.00;99.90;;;;;;4956430;28;20148;-78
2022/04/14 10:36:39;;;;;;;;;;;14.00;99.90;;;;;;4941878;28;19934;-79
2022/04/14 10:39:06;;;;;;;;;;;14.00;99.90;;;;;;4968534;28;19965;-80
2022/04/14 10:41:36;;;;;;;;;;;14.20;99.90;;;;;;4963185;28;20028;-78
2022/04/14 10:44:03;;;;;;;;;;;14.70;99.60;;;;;;4966843;28;19941;-80
2022/04/14 10:46:31;;;;;;;;;;;15.00;99.00;;;;;;4971903;28;20015;-76
2022/04/14 10:49:11;;;;;;;;;;;15.20;98.40;;;;;;4971479;28;20565;-78
2022/04/14 10:51:38;;;;;;;;;;;15.30;97.60;;;;;;4955447;28;19942;-78
2022/04/14 10:54:06;;;;;;;;;;;15.70;97.50;;;;;;4973630;28;19933;-79
2022/04/14 10:56:46;;;;;;;;;;;15.90;96.70;;;;;;4971984;28;19930;-75
2022/04/14 10:59:15;;;;;;;;;;;15.90;96.20;;;;;;4965954;28;19934;-76
2022/04/14 11:02:04;;;;;;;;;;;16.20;95.60;;;;;;4949531;28;21408;-75
2022/04/14 11:04:37;;;;;;;;;;;16.00;95.40;;;;;;4966141;28;20057;-76
2022/04/14 11:07:11;;;;;;;;;;;15.70;96.10;;;;;;4967884;28;20669;-76
2022/04/14 11:09:48;;;;;;;;;;;15.50;97.40;;;;;;4955736;28;19933;-78
2022/04/14 11:12:16;;;;;;;;;;;15.30;97.80;;;;;;4978255;28;19973;-77
2022/04/14 11:14:45;;;;;;;;;;;15.20;98.30;;;;;;4970305;28;19930;-77
2022/04/14 11:17:26;;;;;;;;;;;15.20;98.70;;;;;;4959293;28;19938;-75
2022/04/14 11:19:55;;;;;;;;;;;15.10;98.90;;;;;;4974095;28;19942;-76
2022/04/14 11:22:22;;;;;;;;;;;15.10;99.10;;;;;;4959198;28;19940;-76
2022/04/14 11:24:50;;;;;;;;;;;15.00;99.20;;;;;;4970398;28;19937;-76
2022/04/14 11:27:17;;;;;;;;;;;15.10;99.40;;;;;;4966791;28;19926;-75
2022/04/14 11:29:45;;;;;;;;;;;15.00;99.50;;;;;;4975714;28;20021;-77
2022/04/14 11:32:13;;;;;;;;;;;15.10;99.20;;;;;;4965715;28;19952;-76
2022/04/14 11:34:40;;;;;;;;;;;15.20;99.10;;;;;;4969055;28;19932;-79
2022/04/14 11:37:22;;;;;;;;;;;15.20;99.40;;;;;;4973934;28;20468;-77
2022/04/14 11:40:13;;;;;;;;;;;15.20;99.40;;;;;;4955675;28;19968;-77
2022/04/14 11:42:41;;;;;;;;;;;15.20;99.40;;;;;;4953181;28;19933;-78
2022/04/14 11:45:08;;;;;;;;;;;15.20;99.60;;;;;;4973607;28;19980;-78
2022/04/14 11:47:35;;;;;;;;;;;15.20;99.80;;;;;;4978612;28;20033;-77
2022/04/14 11:50:02;;;;;;;;;;;15.20;99.90;;;;;;4979098;28;20017;-77
2022/04/14 11:52:29;;;;;;;;;;;15.30;99.90;;;;;;4969230;28;20455;-77
2022/04/14 11:54:58;;;;;;;;;;;15.30;99.90;;;;;;4974685;28;20931;-77
2022/04/14 11:57:29;;;;;;;;;;;15.30;99.90;;;;;;4977028;28;20401;-78
2022/04/14 12:00:10;;;;;;;;;;;15.30;99.80;;;;;;4968513;28;19925;-77
2022/04/14 12:02:38;;;;;;;;;;;15.40;99.60;;;;;;4973482;28;19930;-80
2022/04/14 12:05:06;;;;;;;;;;;15.40;99.90;;;;;;4974581;28;19932;-78
2022/04/14 12:07:34;;;;;;;;;;;15.40;99.90;;;;;;4968120;28;20385;-77
2022/04/14 12:10:03;;;;;;;;;;;15.40;99.90;;;;;;4970379;28;20442;-77
2022/04/14 12:12:31;;;;;;;;;;;15.40;99.90;;;;;;4963764;28;20001;-77
2022/04/14 12:14:58;;;;;;;;;;;15.40;99.90;;;;;;4956547;28;19933;-76
2022/04/14 12:17:26;;;;;;;;;;;15.40;99.90;;;;;;4975587;28;19930;-76
2022/04/14 12:19:53;;;;;;;;;;;15.40;99.90;;;;;;4962242;28;20487;-76
2022/04/14 12:22:20;;;;;;;;;;;15.40;99.90;;;;;;4969596;28;19930;-77
2022/04/14 12:24:48;;;;;;;;;;;15.50;99.90;;;;;;4953619;28;20335;-77
2022/04/14 12:27:19;;;;;;;;;;;15.60;99.90;;;;;;4983433;28;19937;-78
2022/04/14 12:29:46;;;;;;;;;;;15.60;99.90;;;;;;4944330;28;19934;-77
2022/04/14 12:32:15;;;;;;;;;;;15.60;99.90;;;;;;4959585;28;19984;-76
2022/04/14 12:34:43;;;;;;;;;;;15.60;99.90;;;;;;4969636;28;19930;-77
2022/04/14 12:37:13;;;;;;;;;;;15.70;99.90;;;;;;4993147;28;19925;-77
2022/04/14 12:39:53;;;;;;;;;;;15.70;99.90;;;;;;4953288;28;19929;-77
2022/04/14 12:42:24;;;;;;;;;;;15.80;99.90;;;;;;4955766;28;19930;-78
2022/04/14 12:44:51;;;;;;;;;;;16.00;99.40;;;;;;4963602;28;19945;-78
2022/04/14 12:47:18;;;;;;;;;;;16.00;99.80;;;;;;4965586;28;19932;-77
2022/04/14 12:49:45;;;;;;;;;;;16.00;99.90;;;;;;4977577;28;19926;-77
2022/04/14 12:52:18;;;;;;;;;;;16.00;99.90;;;;;;4973559;28;19926;-77
2022/04/14 12:54:49;;;;;;;;;;;16.00;99.90;;;;;;4966330;28;20428;-77
2022/04/14 12:57:18;;;;;;;;;;;16.00;99.90;;;;;;4979816;28;20036;-76
2022/04/14 13:00:00;;;;;;;;;;;16.00;99.90;;;;;;4979319;28;20038;-77
2022/04/14 13:02:29;;;;;;;;;;;16.10;99.90;;;;;;4961584;28;19926;-78
2022/04/14 13:05:05;;;;;;;;;;;16.10;99.90;;;;;;4958062;28;19929;-77
2022/04/14 13:07:44;;;;;;;;;;;16.10;99.90;;;;;;4970089;28;20307;-77
2022/04/14 13:10:11;;;;;;;;;;;16.10;99.90;;;;;;4983921;28;20566;-77
2022/04/14 13:12:39;;;;;;;;;;;16.20;99.90;;;;;;4975321;28;19941;-78
2022/04/14 13:15:07;;;;;;;;;;;16.20;99.90;;;;;;4979490;28;20024;-78
2022/04/14 13:17:37;;;;;;;;;;;16.30;99.90;;;;;;4982397;28;19930;-78
2022/04/14 13:20:07;;;;;;;;;;;16.30;99.90;;;;;;4981521;28;20312;-76
2022/04/14 13:22:35;;;;;;;;;;;16.40;99.90;;;;;;4980506;28;19945;-78
2022/04/14 13:25:01;;;;;;;;;;;16.40;99.90;;;;;;4966631;28;19925;-78
2022/04/14 13:27:28;;;;;;;;;;;16.50;99.90;;;;;;4977635;28;20376;-78
2022/04/14 13:29:55;;;;;;;;;;;16.50;99.90;;;;;;4981268;28;19973;-77
2022/04/14 13:32:22;;;;;;;;;;;16.60;99.90;;;;;;4976467;28;19934;-76
2022/04/14 13:34:51;;;;;;;;;;;16.60;99.90;;;;;;4980219;28;20396;-78
2022/04/14 13:37:17;;;;;;;;;;;16.60;99.90;;;;;;4987357;28;19930;-77
2022/04/14 13:39:44;;;;;;;;;;;16.60;99.90;;;;;;4983479;28;20616;-78
2022/04/14 13:42:11;;;;;;;;;;;16.70;99.90;;;;;;4981130;28;20384;-77
2022/04/14 13:44:38;;;;;;;;;;;16.70;99.90;;;;;;4975888;28;19978;-77
2022/04/14 13:47:05;;;;;;;;;;;16.80;99.90;;;;;;4990046;28;19926;-78
2022/04/14 13:49:32;;;;;;;;;;;16.90;99.90;;;;;;4961103;28;19926;-78
2022/04/14 13:52:01;;;;;;;;;;;16.90;99.90;;;;;;4979383;28;20359;-78
2022/04/14 13:54:28;;;;;;;;;;;17.00;99.90;;;;;;4976226;28;19933;-77
2022/04/14 13:56:55;;;;;;;;;;;17.00;99.90;;;;;;4985810;28;19933;-77
2022/04/14 13:59:22;;;;;;;;;;;17.00;99.90;;;;;;4978068;28;19933;-78
2022/04/14 14:01:49;;;;;;;;;;;17.10;99.90;;;;;;4964302;28;19982;-77
2022/04/14 14:04:16;;;;;;;;;;;17.10;99.90;;;;;;4981258;28;20403;-77
2022/04/14 14:06:42;;;;;;;;;;;17.20;99.90;;;;;;4975491;28;19965;-77
2022/04/14 14:09:11;;;;;;;;;;;17.30;99.90;;;;;;4981929;28;20447;-77
2022/04/14 14:11:38;;;;;;;;;;;17.30;99.90;;;;;;4971822;28;19933;-76
2022/04/14 14:14:05;;;;;;;;;;;17.40;99.90;;;;;;4963753;28;20472;-77
2022/04/14 14:16:33;;;;;;;;;;;17.50;99.90;;;;;;4963540;28;20360;-77
2022/04/14 14:19:00;;;;;;;;;;;17.60;99.90;;;;;;4968826;28;20052;-77
2022/04/14 14:21:27;;;;;;;;;;;18.00;98.20;;;;;;4961709;28;20441;-77
2022/04/14 14:23:54;;;;;;;;;;;17.90;98.30;;;;;;4968096;28;19930;-78